Terminal Aerodrome Forecast
Issued by NWS Boston, MA

Home | Current Version | Previous Version | Text Only | Print | Product List | Glossary On
Versions: 1 2 3 4 5 6 7 8 9 10 11 12 13 14 15 16 17 18 19 20 21 22 23 24
000
FTUS41 KBOX 301736
TAFBOS
TAF
KBOS 301736Z 3018/3124 35010KT P6SM FEW250
     FM301830 10010KT P6SM FEW250
     FM310000 07005KT P6SM FEW150
     FM311300 07005KT 2SM -SN OVC020
     FM312100 10006KT 1SM -SNPL OVC010
     FM312300 09008KT 1SM -PLSN OVC010=

USA.gov is the U.S. government's official web portal to all federal, state and local government web resources and services.